Time;durP1;ratioP1;P1;durP2;ratioP2;P2;SDS_P1;SDS_P2;PMS_P1;PMS_P2;Temp;Humidity;BMP_temperature;BMP_pressure;BME280_temperature;BME280_humidity;BME280_pressure;Samples;Min_cycle;Max_cycle;Signal;HPM_P1;HPM_P2
2022/05/26 00:04:34;;;;;;;;;;;;;;;14.36;72.61621;101646.9;;;;-81
2022/05/26 00:09:34;;;;;;;;;;;;;;;14.33;72.93555;101645.8;;;;-81
2022/05/26 00:14:34;;;;;;;;;;;;;;;14.3;73.04199;101649.6;;;;-82
2022/05/26 00:19:06;;;;;;;20.5;3.8;;;;;;;;;;;;;-81
2022/05/26 00:19:34;;;;;;;;;;;;;;;14.3;72.98535;101639.3;;;;-82
2022/05/26 00:24:34;;;;;;;;;;;;;;;14.25;73.01172;101649.7;;;;-83
2022/05/26 00:29:34;;;;;;;;;;;;;;;14.19;72.99023;101654.3;;;;-83
2022/05/26 00:34:36;;;;;;;;;;;;;;;14.13;73.11328;101658.6;;;;-81
2022/05/26 00:39:33;;;;;;;;;;;;;;;14.07;73.22754;101664.4;;;;-81
2022/05/26 00:44:34;;;;;;;;;;;;;;;14.04;73.00879;101668.1;;;;-82
2022/05/26 00:49:08;;;;;;;19.4;4.3;;;;;;;;;;;;;-81
2022/05/26 00:49:36;;;;;;;;;;;;;;;14.01;73.51855;101664.7;;;;-82
2022/05/26 00:54:34;;;;;;;;;;;;;;;13.99;73.4043;101669;;;;-81
2022/05/26 00:59:41;;;;;;;;;;;;;;;13.99;73.58301;101675.1;;;;-81
2022/05/26 01:04:35;;;;;;;;;;;;;;;13.99;73.64941;101680.6;;;;-82
2022/05/26 01:09:34;;;;;;;;;;;;;;;14;73.61816;101687.1;;;;-81
2022/05/26 01:14:35;;;;;;;;;;;;;;;13.99;73.19141;101685.8;;;;-82
2022/05/26 01:19:16;;;;;;;18.9;4;;;;;;;;;;;;;-84
2022/05/26 01:19:45;;;;;;;;;;;;;;;13.98;73.1123;101681.9;;;;-82
2022/05/26 01:24:45;;;;;;;;;;;;;;;13.98;73.16797;101684.4;;;;-82
2022/05/26 01:29:47;;;;;;;;;;;;;;;13.97;73.15332;101693;;;;-81
2022/05/26 01:34:38;;;;;;;;;;;;;;;13.97;72.90723;101699.9;;;;-82
2022/05/26 01:39:38;;;;;;;;;;;;;;;13.95;72.61426;101708.3;;;;-83
2022/05/26 01:44:41;;;;;;;;;;;;;;;13.95;72.56934;101716.3;;;;-81
2022/05/26 01:49:14;;;;;;;18.3;3.3;;;;;;;;;;;;;-82
2022/05/26 01:49:36;;;;;;;;;;;;;;;13.95;72.26758;101710.8;;;;-81
2022/05/26 01:54:37;;;;;;;;;;;;;;;13.94;72.02051;101714.2;;;;-83
2022/05/26 01:59:37;;;;;;;;;;;;;;;13.91;71.84766;101718.4;;;;-82
2022/05/26 02:04:40;;;;;;;;;;;;;;;13.89;71.52051;101723.2;;;;-81
2022/05/26 02:09:38;;;;;;;;;;;;;;;13.86;71.80664;101727.5;;;;-82
2022/05/26 02:14:40;;;;;;;;;;;;;;;13.83;71.78027;101736.1;;;;-81
2022/05/26 02:19:16;;;;;;;15.1;3;;;;;;;;;;;;;-81
2022/05/26 02:19:35;;;;;;;;;;;;;;;13.79;71.61523;101735.5;;;;-82
2022/05/26 02:24:35;;;;;;;;;;;;;;;13.71;71.17871;101738.6;;;;-81
2022/05/26 02:34:35;;;;;;;;;;;;;;;13.58;71.20215;101746.9;;;;-83
2022/05/26 02:39:40;;;;;;;;;;;;;;;13.51;71.0459;101744.6;;;;-81
2022/05/26 02:44:34;;;;;;;;;;;;;;;13.43;70.83105;101752.4;;;;-81
2022/05/26 02:49:20;;;;;;;12;2.6;;;;;;;;;;;;;-82
2022/05/26 02:49:39;;;;;;;;;;;;;;;13.36;70.73145;101751.8;;;;-82
2022/05/26 02:54:37;;;;;;;;;;;;;;;13.29;70.58594;101767.4;;;;-81
2022/05/26 02:59:36;;;;;;;;;;;;;;;13.24;70.4541;101776.4;;;;-81
2022/05/26 03:04:38;;;;;;;;;;;;;;;13.2;70.34766;101776;;;;-83
2022/05/26 03:09:36;;;;;;;;;;;;;;;13.14;70.43945;101776.8;;;;-81
2022/05/26 03:14:34;;;;;;;;;;;;;;;13.11;70.76855;101780.3;;;;-80
2022/05/26 03:19:50;;;;;;;;;;;;;;;13.07;70.70703;101781.4;;;;-79
2022/05/26 03:24:46;;;;;;;;;;;;;;;13.02;70.66504;101779.3;;;;-82
2022/05/26 03:29:35;;;;;;;;;;;;;;;12.97;70.60156;101790.2;;;;-83
2022/05/26 03:44:36;;;;;;;;;;;;;;;12.97;70.36719;101797.8;;;;-82
2022/05/26 03:49:17;;;;;;;7.3;1.9;;;;;;;;;;;;;-82
2022/05/26 03:49:33;;;;;;;;;;;;;;;12.98;70.49121;101807;;;;-83
2022/05/26 03:54:34;;;;;;;;;;;;;;;13;70.4502;101810.3;;;;-83
2022/05/26 03:59:34;;;;;;;;;;;;;;;13.04;70.2998;101816.9;;;;-82
2022/05/26 04:04:34;;;;;;;;;;;;;;;13.05;70.22266;101820.5;;;;-82
2022/05/26 04:09:33;;;;;;;;;;;;;;;13.06;69.92285;101823.3;;;;-81
2022/05/26 04:14:34;;;;;;;;;;;;;;;13.06;70.0459;101832.8;;;;-82
2022/05/26 04:19:21;;;;;;;5.3;1.8;;;;;;;;;;;;;-82
2022/05/26 04:19:35;;;;;;;;;;;;;;;13.04;69.94238;101836.7;;;;-81
2022/05/26 04:24:33;;;;;;;;;;;;;;;13.04;69.86426;101841.6;;;;-83
2022/05/26 04:29:40;;;;;;;;;;;;;;;13.04;69.60742;101842.2;;;;-82
2022/05/26 04:34:33;;;;;;;;;;;;;;;13.02;69.49316;101847.8;;;;-83
2022/05/26 04:39:35;;;;;;;;;;;;;;;13.04;69.44141;101851.2;;;;-82
2022/05/26 04:44:37;;;;;;;;;;;;;;;13.05;69.30762;101851.9;;;;-82
2022/05/26 04:49:20;;;;;;;4.2;1.3;;;;;;;;;;;;;-81
2022/05/26 04:49:35;;;;;;;;;;;;;;;13.07;69.21094;101857.4;;;;-81
2022/05/26 04:54:35;;;;;;;;;;;;;;;13.08;69.1123;101858.7;;;;-81
2022/05/26 04:59:34;;;;;;;;;;;;;;;13.1;68.9248;101862.1;;;;-81
2022/05/26 05:04:35;;;;;;;;;;;;;;;13.17;69.00391;101868.9;;;;-82
2022/05/26 05:09:34;;;;;;;;;;;;;;;13.22;68.6084;101876.5;;;;-81
2022/05/26 05:14:34;;;;;;;;;;;;;;;13.32;68.66895;101882;;;;-81
2022/05/26 05:19:22;;;;;;;5.5;1.4;;;;;;;;;;;;;-83
2022/05/26 05:19:33;;;;;;;;;;;;;;;13.44;68.6543;101884.6;;;;-81
2022/05/26 05:24:37;;;;;;;;;;;;;;;13.58;68.27441;101896.2;;;;-82
2022/05/26 05:29:37;;;;;;;;;;;;;;;13.79;68.31738;101904.2;;;;-82
2022/05/26 05:34:37;;;;;;;;;;;;;;;14.01;67.71387;101914.9;;;;-83
2022/05/26 05:39:34;;;;;;;;;;;;;;;14.32;67.30176;101914.1;;;;-82
2022/05/26 05:44:35;;;;;;;;;;;;;;;15.04;65.94141;101919.8;;;;-81
2022/05/26 05:49:22;;;;;;;3.5;1;;;;;;;;;;;;;-82
2022/05/26 05:49:34;;;;;;;;;;;;;;;15.88;64.16504;101923.4;;;;-81
2022/05/26 05:54:34;;;;;;;;;;;;;;;16.56;62.52832;101916.6;;;;-80
2022/05/26 05:59:33;;;;;;;;;;;;;;;17.11;61.50977;101918.6;;;;-82
2022/05/26 06:04:41;;;;;;;;;;;;;;;17.72;60.44043;101926;;;;-81
2022/05/26 06:09:34;;;;;;;;;;;;;;;18.28;59.39551;101929.1;;;;-83
2022/05/26 06:14:33;;;;;;;;;;;;;;;18.78;58.50977;101932.5;;;;-81
2022/05/26 06:19:24;;;;;;;3.8;1;;;;;;;;;;;;;-82
2022/05/26 06:19:35;;;;;;;;;;;;;;;19.24;57.62598;101927.5;;;;-80
2022/05/26 06:24:35;;;;;;;;;;;;;;;19.76;56.49902;101936.1;;;;-83
2022/05/26 06:39:33;;;;;;;;;;;;;;;21.04;54.16113;101947.6;;;;-81
2022/05/26 06:44:34;;;;;;;;;;;;;;;21.38;53.55176;101950.5;;;;-81
2022/05/26 06:49:29;;;;;;;3.6;0.9;;;;;;;;;;;;;-83
2022/05/26 06:49:42;;;;;;;;;;;;;;;21.6;52.99512;101945.1;;;;-82
2022/05/26 06:54:37;;;;;;;;;;;;;;;21.88;52.70801;101957.3;;;;-83
2022/05/26 06:59:40;;;;;;;;;;;;;;;22.08;51.93945;101960.7;;;;-82
2022/05/26 07:04:34;;;;;;;;;;;;;;;22.27;51.69824;101968.6;;;;-83
2022/05/26 07:09:34;;;;;;;;;;;;;;;22.55;51.29492;101976.5;;;;-82
2022/05/26 07:14:33;;;;;;;;;;;;;;;22.81;50.82031;101979.4;;;;-80
2022/05/26 07:19:31;;;;;;;5.3;1.2;;;;;;;;;;;;;-83
2022/05/26 07:19:42;;;;;;;;;;;;;;;23.02;50.53418;101977.8;;;;-82
2022/05/26 07:24:34;;;;;;;;;;;;;;;23.29;50.20801;101984.3;;;;-84
2022/05/26 07:29:40;;;;;;;;;;;;;;;23.54;49.41992;101974.4;;;;-83
2022/05/26 07:34:33;;;;;;;;;;;;;;;23.57;48.70996;101969.8;;;;-83
2022/05/26 07:44:36;;;;;;;;;;;;;;;23.69;48.49316;101985.8;;;;-83
2022/05/26 07:49:33;;;;;;;6.4;1.7;;;;;;;;;;;;;-84
2022/05/26 07:49:44;;;;;;;;;;;;;;;23.79;48.22754;101989.3;;;;-83
2022/05/26 07:54:34;;;;;;;;;;;;;;;23.85;47.95703;102000.8;;;;-84
2022/05/26 07:59:34;;;;;;;;;;;;;;;23.97;47.87891;102004.3;;;;-82
2022/05/26 08:04:34;;;;;;;;;;;;;;;24.04;47.8623;102013.7;;;;-84
2022/05/26 08:09:35;;;;;;;;;;;;;;;24.11;47.78809;102011.2;;;;-84
2022/05/26 08:14:34;;;;;;;;;;;;;;;24.23;47.64063;102020.1;;;;-84
2022/05/26 08:19:34;;;;;;;;;;;;;;;24.3;47.44141;102026.3;;;;-84
2022/05/26 08:19:44;;;;;;;3.5;1.2;;;;;;;;;;;;;-84
2022/05/26 08:24:33;;;;;;;;;;;;;;;24.3;47.06055;102022.5;;;;-85
2022/05/26 08:29:34;;;;;;;;;;;;;;;24.33;47.16699;102035.8;;;;-81
2022/05/26 08:34:36;;;;;;;;;;;;;;;24.41;46.8291;102038.5;;;;-84
2022/05/26 08:39:34;;;;;;;;;;;;;;;24.39;46.82813;102043.8;;;;-84
2022/05/26 08:44:35;;;;;;;;;;;;;;;24.43;46.82031;102047.8;;;;-83
2022/05/26 08:49:38;;;;;;;;;;;;;;;24.67;46.94824;102045.6;;;;-85
2022/05/26 08:49:52;;;;;;;5;1.4;;;;;;;;;;;;;-85
2022/05/26 08:54:35;;;;;;;;;;;;;;;24.93;46.56055;102056.6;;;;-83
2022/05/26 08:59:42;;;;;;;;;;;;;;;25.11;45.91992;102058.9;;;;-82
2022/05/26 09:04:35;;;;;;;;;;;;;;;25.19;45.74316;102061.7;;;;-84
2022/05/26 09:14:36;;;;;;;;;;;;;;;25.53;45.26855;102070.9;;;;-82
2022/05/26 09:19:35;;;;;;;;;;;;;;;25.66;44.80762;102070.5;;;;-83
2022/05/26 09:19:55;;;;;;;5.9;1.2;;;;;;;;;;;;;-83
2022/05/26 09:24:39;;;;;;;;;;;;;;;25.8;44.40527;102085.4;;;;-85
2022/05/26 09:29:35;;;;;;;;;;;;;;;25.89;43.74219;102087.6;;;;-83
2022/05/26 09:34:36;;;;;;;;;;;;;;;25.97;43.63477;102088;;;;-83
2022/05/26 09:39:37;;;;;;;;;;;;;;;26.12;43.10449;102086.5;;;;-85
2022/05/26 09:44:44;;;;;;;;;;;;;;;26.2;43.22754;102085.6;;;;-83
2022/05/26 09:49:39;;;;;;;;;;;;;;;26.39;43.21191;102089.9;;;;-83
2022/05/26 09:49:52;;;;;;;7.3;1.5;;;;;;;;;;;;;-83
2022/05/26 09:54:35;;;;;;;;;;;;;;;26.47;42.40723;102100.1;;;;-83
2022/05/26 09:59:35;;;;;;;;;;;;;;;26.21;42.28906;102096.3;;;;-83
2022/05/26 10:04:44;;;;;;;;;;;;;;;26.16;42.58594;102113.8;;;;-83
2022/05/26 10:09:38;;;;;;;;;;;;;;;26.23;42.29102;102098.5;;;;-85
2022/05/26 10:14:43;;;;;;;;;;;;;;;26.08;42.43945;102109.9;;;;-84
2022/05/26 10:19:41;;;;;;;;;;;;;;;25.96;42.45215;102111;;;;-84
2022/05/26 10:20:03;;;;;;;6.9;1.5;;;;;;;;;;;;;-84
2022/05/26 10:24:47;;;;;;;;;;;;;;;25.87;42.54785;102102.6;;;;-83
2022/05/26 10:29:43;;;;;;;;;;;;;;;25.95;42.58984;102104.3;;;;-83
2022/05/26 10:34:44;;;;;;;;;;;;;;;26.18;42.58789;102116.1;;;;-83
2022/05/26 10:39:41;;;;;;;;;;;;;;;26.43;42.55371;102126.6;;;;-84
2022/05/26 10:44:40;;;;;;;;;;;;;;;26.47;42.05859;102106.4;;;;-83
2022/05/26 10:49:45;;;;;;;;;;;;;;;26.51;41.87695;102108.7;;;;-83
2022/05/26 10:49:57;;;;;;;7.7;1.6;;;;;;;;;;;;;-83
2022/05/26 10:54:44;;;;;;;;;;;;;;;26.4;41.78516;102107;;;;-84
2022/05/26 10:59:38;;;;;;;;;;;;;;;26.42;42.1582;102115.7;;;;-84
2022/05/26 11:04:37;;;;;;;;;;;;;;;26.28;41.75098;102105.5;;;;-83
2022/05/26 11:09:37;;;;;;;;;;;;;;;26.12;41.86426;102106.7;;;;-82
2022/05/26 11:19:37;;;;;;;;;;;;;;;25.82;42.54297;102106.3;;;;-77
2022/05/26 11:19:59;;;;;;;6.9;1.3;;;;;;;;;;;;;-76
2022/05/26 11:24:34;;;;;;;;;;;;;;;25.81;42.64551;102104.6;;;;-77
2022/05/26 11:29:38;;;;;;;;;;;;;;;25.84;42.72949;102111.7;;;;-77
2022/05/26 11:39:37;;;;;;;;;;;;;;;25.54;42.45801;102108.6;;;;-78
2022/05/26 11:44:41;;;;;;;;;;;;;;;25.42;42.70215;102108.2;;;;-76
2022/05/26 11:49:47;;;;;;;;;;;;;;;25.36;42.67188;102118.1;;;;-78
2022/05/26 11:50:20;;;;;;;8;1.8;;;;;;;;;;;;;-76
2022/05/26 11:54:44;;;;;;;;;;;;;;;25.19;42.81836;102115.5;;;;-77
2022/05/26 11:59:44;;;;;;;;;;;;;;;25.16;42.6875;102116.3;;;;-79
2022/05/26 12:04:35;;;;;;;;;;;;;;;25.12;42.98535;102116.1;;;;-79
2022/05/26 12:09:38;;;;;;;;;;;;;;;25.05;42.97754;102117.7;;;;-77
2022/05/26 12:14:35;;;;;;;;;;;;;;;24.96;42.94727;102109.7;;;;-79
2022/05/26 12:19:48;;;;;;;;;;;;;;;25.02;43.27539;102118.2;;;;-78
2022/05/26 12:20:07;;;;;;;7.6;1.7;;;;;;;;;;;;;-77
2022/05/26 12:24:44;;;;;;;;;;;;;;;25.02;42.91797;102110.1;;;;-77
2022/05/26 12:29:44;;;;;;;;;;;;;;;25.1;43.44629;102119.8;;;;-76
2022/05/26 12:34:37;;;;;;;;;;;;;;;25.19;42.98047;102126.1;;;;-78
2022/05/26 12:39:45;;;;;;;;;;;;;;;25.13;42.02539;102114.1;;;;-79
2022/05/26 12:44:45;;;;;;;;;;;;;;;24.93;42.65527;102113.9;;;;-78
2022/05/26 12:49:53;;;;;;;;;;;;;;;25;42.90527;102105.9;;;;-77
2022/05/26 12:50:11;;;;;;;7.2;1.4;;;;;;;;;;;;;-77
2022/05/26 12:54:36;;;;;;;;;;;;;;;25.09;42.48535;102108.8;;;;-77
2022/05/26 12:59:33;;;;;;;;;;;;;;;24.92;42.30762;102105.5;;;;-74
2022/05/26 13:04:35;;;;;;;;;;;;;;;24.81;42.65527;102113.6;;;;-77
2022/05/26 13:09:39;;;;;;;;;;;;;;;24.83;42.69238;102103.6;;;;-78
2022/05/26 13:14:39;;;;;;;;;;;;;;;24.72;42.38086;102099.2;;;;-76
2022/05/26 13:19:43;;;;;;;;;;;;;;;24.47;42.32129;102099;;;;-79
2022/05/26 13:20:21;;;;;;;8.3;1.6;;;;;;;;;;;;;-77
2022/05/26 13:24:35;;;;;;;;;;;;;;;24.37;42.62402;102098.7;;;;-77
2022/05/26 13:29:35;;;;;;;;;;;;;;;24.29;42.74414;102088.1;;;;-77
2022/05/26 13:34:33;;;;;;;;;;;;;;;24.17;42.65332;102084.1;;;;-76
2022/05/26 13:39:33;;;;;;;;;;;;;;;24.08;42.95605;102080.1;;;;-77
2022/05/26 13:44:36;;;;;;;;;;;;;;;24.04;42.8125;102089.2;;;;-76
2022/05/26 13:49:41;;;;;;;;;;;;;;;23.89;42.94922;102081;;;;-78
2022/05/26 13:50:14;;;;;;;5.3;1.5;;;;;;;;;;;;;-77
2022/05/26 13:54:38;;;;;;;;;;;;;;;23.7;42.90723;102070.7;;;;-77
2022/05/26 13:59:38;;;;;;;;;;;;;;;23.54;42.91504;102073.6;;;;-78
2022/05/26 14:04:45;;;;;;;;;;;;;;;23.42;43.44531;102072.7;;;;-77
2022/05/26 14:09:51;;;;;;;;;;;;;;;23.35;43.65723;102061.2;;;;-78
2022/05/26 14:14:41;;;;;;;;;;;;;;;23.16;43.56934;102056;;;;-78
2022/05/26 14:19:36;;;;;;;;;;;;;;;22.98;44.0127;102045.6;;;;-80
2022/05/26 14:20:29;;;;;;;7;1.4;;;;;;;;;;;;;-77
2022/05/26 14:24:44;;;;;;;;;;;;;;;22.9;44.26855;102039.5;;;;-77
2022/05/26 14:29:46;;;;;;;;;;;;;;;22.83;44.43457;102028;;;;-76
2022/05/26 14:34:46;;;;;;;;;;;;;;;22.8;44.6377;102064.8;;;;-76
2022/05/26 14:39:33;;;;;;;;;;;;;;;22.78;44.60254;102056.5;;;;-77
2022/05/26 14:44:34;;;;;;;;;;;;;;;22.83;44.61816;102052.1;;;;-76
2022/05/26 14:49:34;;;;;;;;;;;;;;;22.82;44.42188;102045.2;;;;-78
2022/05/26 14:50:28;;;;;;;6.2;1.8;;;;;;;;;;;;;-78
2022/05/26 14:59:35;;;;;;;;;;;;;;;22.61;44.13672;102040.5;;;;-77
2022/05/26 15:04:33;;;;;;;;;;;;;;;22.46;44.36426;102050.5;;;;-77
2022/05/26 15:09:33;;;;;;;;;;;;;;;22.3;44.3125;102034.3;;;;-78
2022/05/26 15:14:34;;;;;;;;;;;;;;;22.03;44.6416;102017.1;;;;-76
2022/05/26 15:19:36;;;;;;;;;;;;;;;21.89;44.97168;102016.8;;;;-77
2022/05/26 15:20:24;;;;;;;4;1.2;;;;;;;;;;;;;-76
2022/05/26 15:24:33;;;;;;;;;;;;;;;21.74;45.49609;102027.6;;;;-75
2022/05/26 15:29:34;;;;;;;;;;;;;;;21.71;45.86035;102019;;;;-77
2022/05/26 15:34:33;;;;;;;;;;;;;;;21.59;46.13379;102012.7;;;;-76
2022/05/26 15:39:33;;;;;;;;;;;;;;;21.42;46.67773;102030.6;;;;-76
2022/05/26 15:44:33;;;;;;;;;;;;;;;21.29;47.11133;102021.2;;;;-76
2022/05/26 15:49:33;;;;;;;;;;;;;;;21.24;47.3584;102004.5;;;;-76
2022/05/26 15:50:28;;;;;;;5.5;1.7;;;;;;;;;;;;;-75
2022/05/26 15:54:33;;;;;;;;;;;;;;;21.15;47.80566;101999.7;;;;-77
2022/05/26 15:59:33;;;;;;;;;;;;;;;21.03;48.2627;101987.3;;;;-76
2022/05/26 16:04:33;;;;;;;;;;;;;;;20.94;48.58496;101995.4;;;;-77
2022/05/26 16:09:33;;;;;;;;;;;;;;;20.87;48.85156;101990.7;;;;-77
2022/05/26 16:14:34;;;;;;;;;;;;;;;20.79;49.01367;101993.5;;;;-76
2022/05/26 16:19:33;;;;;;;;;;;;;;;20.74;49.14648;101991.6;;;;-83
2022/05/26 16:20:35;;;;;;;6.7;1.7;;;;;;;;;;;;;-84
2022/05/26 16:24:35;;;;;;;;;;;;;;;20.69;49.36816;101980.4;;;;-81
2022/05/26 16:29:38;;;;;;;;;;;;;;;20.61;49.70215;101984.9;;;;-83
2022/05/26 16:34:36;;;;;;;;;;;;;;;20.44;50.03809;101981.5;;;;-83
2022/05/26 16:39:38;;;;;;;;;;;;;;;20.32;50.41211;101986.1;;;;-82
2022/05/26 16:44:35;;;;;;;;;;;;;;;20.2;50.85547;101979.3;;;;-84
2022/05/26 16:49:34;;;;;;;;;;;;;;;20.08;51.14844;101976.7;;;;-81
2022/05/26 16:50:33;;;;;;;10.2;2.2;;;;;;;;;;;;;-83
2022/05/26 16:54:36;;;;;;;;;;;;;;;19.95;51.4541;101975.4;;;;-82
2022/05/26 16:59:34;;;;;;;;;;;;;;;19.73;52.27148;101963.9;;;;-77
2022/05/26 17:04:34;;;;;;;;;;;;;;;19.5;52.88184;101964;;;;-75
2022/05/26 17:09:34;;;;;;;;;;;;;;;19.34;53.06836;101974;;;;-76
2022/05/26 17:24:34;;;;;;;;;;;;;;;18.86;54.6582;101968.4;;;;-74
2022/05/26 17:29:33;;;;;;;;;;;;;;;18.68;54.64746;101952.4;;;;-77
2022/05/26 17:34:33;;;;;;;;;;;;;;;18.56;54.76855;101947.4;;;;-76
2022/05/26 17:39:34;;;;;;;;;;;;;;;18.41;55.25;101944.5;;;;-77
2022/05/26 17:44:35;;;;;;;;;;;;;;;18.29;55.4834;101950.1;;;;-77
2022/05/26 17:49:35;;;;;;;;;;;;;;;18.16;55.55957;101945.3;;;;-78
2022/05/26 17:50:37;;;;;;;9;2;;;;;;;;;;;;;-76
2022/05/26 17:54:35;;;;;;;;;;;;;;;18.08;55.32227;101936;;;;-76
2022/05/26 18:04:33;;;;;;;;;;;;;;;17.88;56.13672;101938.2;;;;-76
2022/05/26 18:09:34;;;;;;;;;;;;;;;17.79;56.49902;101940.4;;;;-76
2022/05/26 18:14:34;;;;;;;;;;;;;;;17.69;56.97363;101938.5;;;;-76
2022/05/26 18:19:37;;;;;;;;;;;;;;;17.61;57.34766;101927.8;;;;-76
2022/05/26 18:20:39;;;;;;;10.5;2;;;;;;;;;;;;;-76
2022/05/26 18:24:33;;;;;;;;;;;;;;;17.54;57.1123;101940.5;;;;-77
2022/05/26 18:29:33;;;;;;;;;;;;;;;17.44;57.74414;101927.8;;;;-81
2022/05/26 18:34:34;;;;;;;;;;;;;;;17.35;58.0498;101927.9;;;;-81
2022/05/26 18:39:35;;;;;;;;;;;;;;;17.28;58.65137;101922.2;;;;-82
2022/05/26 18:44:34;;;;;;;;;;;;;;;17.19;59.03516;101913.9;;;;-82
2022/05/26 18:49:34;;;;;;;;;;;;;;;17.13;59.03711;101916.6;;;;-82
2022/05/26 18:50:44;;;;;;;9.2;2;;;;;;;;;;;;;-84
2022/05/26 18:54:34;;;;;;;;;;;;;;;17.04;59.70313;101915;;;;-82
2022/05/26 18:59:35;;;;;;;;;;;;;;;16.97;59.90918;101922.3;;;;-83
2022/05/26 19:04:34;;;;;;;;;;;;;;;16.93;59.91602;101924.7;;;;-83
2022/05/26 19:09:35;;;;;;;;;;;;;;;16.85;60.76172;101928.5;;;;-82
2022/05/26 19:14:35;;;;;;;;;;;;;;;16.79;60.46094;101923;;;;-80
2022/05/26 19:19:33;;;;;;;;;;;;;;;16.73;61.06152;101937;;;;-83
2022/05/26 19:20:46;;;;;;;7.3;2.1;;;;;;;;;;;;;-82
2022/05/26 19:24:38;;;;;;;;;;;;;;;16.66;61.56055;101939.4;;;;-82
2022/05/26 19:29:37;;;;;;;;;;;;;;;16.6;62.18457;101942.8;;;;-81
2022/05/26 19:34:35;;;;;;;;;;;;;;;16.55;62.10938;101939.7;;;;-81
2022/05/26 19:39:34;;;;;;;;;;;;;;;16.52;62.3877;101942;;;;-82
2022/05/26 19:44:36;;;;;;;;;;;;;;;16.48;62.97949;101953.1;;;;-81
2022/05/26 19:49:36;;;;;;;;;;;;;;;16.42;63.4668;101959.6;;;;-82
2022/05/26 19:50:44;;;;;;;9.8;2.3;;;;;;;;;;;;;-81
2022/05/26 19:54:33;;;;;;;;;;;;;;;16.39;63.40527;101957.1;;;;-81
2022/05/26 19:59:33;;;;;;;;;;;;;;;16.38;63.42676;101954.1;;;;-82
2022/05/26 20:04:33;;;;;;;;;;;;;;;16.35;63.8623;101960.2;;;;-81
2022/05/26 20:09:35;;;;;;;;;;;;;;;16.32;63.96973;101966.2;;;;-82
2022/05/26 20:14:33;;;;;;;;;;;;;;;16.28;64.39355;101977;;;;-82
2022/05/26 20:19:33;;;;;;;;;;;;;;;16.24;64.7793;101974;;;;-81
2022/05/26 20:20:46;;;;;;;8.6;2.1;;;;;;;;;;;;;-81
2022/05/26 20:24:33;;;;;;;;;;;;;;;16.22;65.3291;101960.2;;;;-83
2022/05/26 20:29:35;;;;;;;;;;;;;;;16.19;65.24609;101971.5;;;;-82
2022/05/26 20:34:34;;;;;;;;;;;;;;;16.16;65.45605;101960.2;;;;-82
2022/05/26 20:39:37;;;;;;;;;;;;;;;16.15;65.71387;101955.1;;;;-82
2022/05/26 20:44:34;;;;;;;;;;;;;;;16.12;65.55176;101949.7;;;;-82
2022/05/26 20:49:37;;;;;;;;;;;;;;;16.08;66.30078;101955.6;;;;-81
2022/05/26 20:50:48;;;;;;;11.4;2.2;;;;;;;;;;;;;-84
2022/05/26 20:54:33;;;;;;;;;;;;;;;16.06;66.20605;101967.1;;;;-81
2022/05/26 20:59:35;;;;;;;;;;;;;;;16.04;66.53027;101960.9;;;;-82
2022/05/26 21:04:33;;;;;;;;;;;;;;;16.01;66.58203;101959.5;;;;-81
2022/05/26 21:09:33;;;;;;;;;;;;;;;15.98;66.67871;101948.6;;;;-81
2022/05/26 21:14:34;;;;;;;;;;;;;;;15.95;67.0459;101941.5;;;;-80
2022/05/26 21:19:33;;;;;;;;;;;;;;;15.94;67.32422;101943.5;;;;-82
2022/05/26 21:20:50;;;;;;;14.5;2.4;;;;;;;;;;;;;-81
2022/05/26 21:24:33;;;;;;;;;;;;;;;15.91;68.00586;101943.7;;;;-81
2022/05/26 21:29:35;;;;;;;;;;;;;;;15.89;68.08203;101936.1;;;;-81
2022/05/26 21:34:34;;;;;;;;;;;;;;;15.88;68.30566;101935.4;;;;-82
2022/05/26 21:39:33;;;;;;;;;;;;;;;15.86;68.43652;101930.2;;;;-83
2022/05/26 21:44:33;;;;;;;;;;;;;;;15.84;68.47852;101926;;;;-82
2022/05/26 21:49:33;;;;;;;;;;;;;;;15.83;68.60059;101938.9;;;;-82
2022/05/26 21:50:52;;;;;;;12.6;2.3;;;;;;;;;;;;;-83
2022/05/26 21:54:39;;;;;;;;;;;;;;;15.83;68.67773;101938.6;;;;-82
2022/05/26 21:59:34;;;;;;;;;;;;;;;15.81;68.75488;101928.2;;;;-83
2022/05/26 22:10:40;;;;;;;;;;;;;;;15.81;68.74414;101921.9;;;;-83
2022/05/26 22:14:34;;;;;;;;;;;;;;;15.8;68.87598;101933.2;;;;-83
2022/05/26 22:19:33;;;;;;;;;;;;;;;15.8;68.6748;101948;;;;-83
2022/05/26 22:20:54;;;;;;;16.2;2.7;;;;;;;;;;;;;-83
2022/05/26 22:24:33;;;;;;;;;;;;;;;15.81;68.45117;101953.3;;;;-82
2022/05/26 22:29:33;;;;;;;;;;;;;;;15.8;68.32617;101958.6;;;;-81
2022/05/26 22:39:33;;;;;;;;;;;;;;;15.78;68.3916;101948;;;;-80
2022/05/26 22:44:33;;;;;;;;;;;;;;;15.76;68.40918;101958.3;;;;-82
2022/05/26 22:49:33;;;;;;;;;;;;;;;15.73;68.39453;101964.7;;;;-83
2022/05/26 22:50:56;;;;;;;14.3;3;;;;;;;;;;;;;-81
2022/05/26 22:54:34;;;;;;;;;;;;;;;15.69;68.64551;101962.4;;;;-82
2022/05/26 22:59:34;;;;;;;;;;;;;;;15.63;68.64941;101962.5;;;;-82
2022/05/26 23:04:35;;;;;;;;;;;;;;;15.58;68.61719;101973.2;;;;-80
2022/05/26 23:09:36;;;;;;;;;;;;;;;15.52;68.4834;101970.7;;;;-83
2022/05/26 23:14:33;;;;;;;;;;;;;;;15.46;68.44336;101969.6;;;;-82
2022/05/26 23:19:33;;;;;;;;;;;;;;;15.39;68.37402;101968.6;;;;-82
2022/05/26 23:20:57;;;;;;;10.8;1.8;;;;;;;;;;;;;-82
2022/05/26 23:24:34;;;;;;;;;;;;;;;15.32;68.63281;101974.2;;;;-80
2022/05/26 23:29:33;;;;;;;;;;;;;;;15.27;68.72656;101963.1;;;;-82
2022/05/26 23:34:33;;;;;;;;;;;;;;;15.2;68.69238;101959.9;;;;-82
2022/05/26 23:39:33;;;;;;;;;;;;;;;15.15;68.71875;101958.7;;;;-82
2022/05/26 23:44:33;;;;;;;;;;;;;;;15.08;68.70898;101955.3;;;;-81
2022/05/26 23:49:33;;;;;;;;;;;;;;;15.03;68.8916;101961.9;;;;-81
2022/05/26 23:50:58;;;;;;;5.4;1.5;;;;;;;;;;;;;-81
2022/05/26 23:54:33;;;;;;;;;;;;;;;14.97;68.96094;101968.2;;;;-82
2022/05/26 23:59:33;;;;;;;;;;;;;;;14.9;69.26367;101966.7;;;;-84
